createdAt,value
2023-10-02T00:02:40.991Z,101566.91
2023-10-02T00:05:41.903Z,101575.44
2023-10-02T00:08:33.185Z,101561.63
2023-10-02T00:11:37.799Z,101561.00
2023-10-02T00:14:24.305Z,101567.88
2023-10-02T00:17:19.554Z,101564.31
2023-10-02T00:20:15.445Z,101568.63
2023-10-02T00:23:02.776Z,101568.53
2023-10-02T00:25:53.546Z,101579.03
2023-10-02T00:28:39.203Z,101572.88
2023-10-02T00:31:37.466Z,101579.84
2023-10-02T00:34:33.165Z,101580.72
2023-10-02T00:37:18.777Z,101590.41
2023-10-02T00:40:08.127Z,101580.16
2023-10-02T00:43:22.184Z,101587.25
2023-10-02T00:46:24.693Z,101586.31
2023-10-02T00:49:26.707Z,101585.47
2023-10-02T00:52:12.228Z,101589.75
2023-10-02T00:54:57.875Z,101591.41
2023-10-02T00:57:46.861Z,101596.66
2023-10-02T01:00:43.767Z,101581.91
2023-10-02T01:03:49.225Z,101580.94
2023-10-02T01:06:55.058Z,101597.44
2023-10-02T01:09:42.841Z,101575.78
2023-10-02T01:12:39.815Z,101583.53
2023-10-02T01:15:39.010Z,101578.34
2023-10-02T01:18:34.661Z,101591.31
2023-10-02T01:21:25.953Z,101586.97
2023-10-02T01:24:18.379Z,101586.28
2023-10-02T01:27:04.954Z,101583.88
2023-10-02T01:30:10.803Z,101587.41
2023-10-02T01:33:13.513Z,101571.91
2023-10-02T01:36:01.541Z,101578.97
2023-10-02T01:38:48.169Z,101578.09
2023-10-02T01:41:33.698Z,101578.94
2023-10-02T01:44:23.951Z,101577.44
2023-10-02T01:47:10.564Z,101585.63
2023-10-02T01:50:01.721Z,101587.59
2023-10-02T01:52:52.315Z,101587.63
2023-10-02T01:55:38.230Z,101578.09
2023-10-02T01:58:24.499Z,101586.84
2023-10-02T02:01:10.996Z,101582.69
2023-10-02T02:03:56.890Z,101581.84
2023-10-02T02:06:52.842Z,101570.53
2023-10-02T02:09:44.307Z,101571.31
2023-10-02T02:12:46.069Z,101573.00
2023-10-02T02:15:33.442Z,101569.38
2023-10-02T02:18:22.200Z,101560.59
2023-10-02T02:21:11.278Z,101568.34
2023-10-02T02:24:08.990Z,101567.41
2023-10-02T02:26:59.130Z,101562.19
2023-10-02T02:29:44.805Z,101568.19
2023-10-02T02:32:54.014Z,101573.41
2023-10-02T02:35:45.500Z,101570.81
2023-10-02T02:38:31.059Z,101565.53
2023-10-02T02:41:19.914Z,101558.59
2023-10-02T02:44:07.775Z,101561.09
2023-10-02T02:46:55.327Z,101551.50
2023-10-02T02:50:00.076Z,101547.00
2023-10-02T02:53:05.477Z,101549.47
2023-10-02T02:56:24.459Z,101565.78
2023-10-02T02:59:10.463Z,101572.69
2023-10-02T03:02:10.314Z,101555.34
2023-10-02T03:04:58.126Z,101563.00
2023-10-02T03:07:46.024Z,101534.31
2023-10-02T03:10:38.158Z,101536.81
2023-10-02T03:13:23.728Z,101541.16
2023-10-02T03:16:19.204Z,101542.78
2023-10-02T03:19:04.885Z,101542.69
2023-10-02T03:21:50.215Z,101541.69
2023-10-02T03:24:35.831Z,101540.69
2023-10-02T03:27:22.862Z,101530.22
2023-10-02T03:30:10.941Z,101534.50
2023-10-02T03:32:56.913Z,101531.88
2023-10-02T03:35:42.185Z,101534.44
2023-10-02T03:38:30.475Z,101529.28
2023-10-02T03:41:16.501Z,101540.47
2023-10-02T03:44:03.241Z,101538.72
2023-10-02T03:46:49.966Z,101533.47
2023-10-02T03:49:35.822Z,101533.47
2023-10-02T03:52:21.145Z,101534.38
2023-10-02T03:55:17.183Z,101539.50
2023-10-02T03:58:03.928Z,101541.22
2023-10-02T04:00:52.395Z,101548.09
2023-10-02T04:03:54.848Z,101542.84
2023-10-02T04:06:43.722Z,101532.34
2023-10-02T04:09:29.173Z,101529.69
2023-10-02T04:12:14.542Z,101519.31
2023-10-02T04:15:02.569Z,101521.13
2023-10-02T04:17:51.119Z,101528.91
2023-10-02T04:20:37.430Z,101523.63
2023-10-02T04:23:24.528Z,101533.03
2023-10-02T04:26:21.836Z,101520.75
2023-10-02T04:29:27.809Z,101524.09
2023-10-02T04:32:16.390Z,101509.31
2023-10-02T04:35:04.310Z,101509.22
2023-10-02T04:37:50.036Z,101513.47
2023-10-02T04:40:50.894Z,101508.16
2023-10-02T04:43:37.125Z,101508.09
2023-10-02T04:46:26.108Z,101504.66
2023-10-02T04:49:12.599Z,101498.56
2023-10-02T04:51:59.973Z,101490.63
2023-10-02T04:55:05.613Z,101498.34
2023-10-02T04:57:55.953Z,101502.72
2023-10-02T05:01:04.779Z,101489.78
2023-10-02T05:03:51.315Z,101489.97
2023-10-02T05:06:51.033Z,101500.78
2023-10-02T05:09:40.072Z,101498.25
2023-10-02T05:12:25.690Z,101502.50
2023-10-02T05:15:22.064Z,101511.22
2023-10-02T05:18:11.072Z,101504.31
2023-10-02T05:20:56.629Z,101503.44
2023-10-02T05:23:45.145Z,101507.78
2023-10-02T05:26:45.920Z,101505.19
2023-10-02T05:29:42.760Z,101497.31
2023-10-02T05:32:33.185Z,101498.06
2023-10-02T05:35:20.107Z,101505.97
2023-10-02T05:38:09.607Z,101511.09
2023-10-02T05:41:00.003Z,101516.22
2023-10-02T05:43:57.197Z,101512.78
2023-10-02T05:47:06.466Z,101526.53
2023-10-02T05:49:55.065Z,101513.59
2023-10-02T05:52:50.151Z,101512.75
2023-10-02T05:55:53.932Z,101515.38
2023-10-02T05:58:43.124Z,101518.09
2023-10-02T06:01:35.575Z,101524.28
2023-10-02T06:04:24.587Z,101529.59
2023-10-02T06:07:13.224Z,101520.00
2023-10-02T06:10:02.234Z,101514.72
2023-10-02T06:12:49.205Z,101519.94
2023-10-02T06:15:50.682Z,101513.00
2023-10-02T06:18:39.610Z,101506.03
2023-10-02T06:21:26.514Z,101512.94
2023-10-02T06:24:11.890Z,101521.59
2023-10-02T06:26:59.236Z,101521.50
2023-10-02T06:29:46.021Z,101530.19
2023-10-02T06:32:33.388Z,101521.50
2023-10-02T06:35:19.162Z,101512.00
2023-10-02T06:38:18.948Z,101512.91
2023-10-02T06:41:18.758Z,101525.81
2023-10-02T06:44:16.449Z,101523.22
2023-10-02T06:47:05.605Z,101508.56
2023-10-02T06:50:04.111Z,101521.72
2023-10-02T06:52:53.463Z,101535.72
2023-10-02T06:55:40.894Z,101532.38
2023-10-02T06:58:27.451Z,101518.56
2023-10-02T07:01:13.770Z,101519.59
2023-10-02T07:04:10.426Z,101523.22
2023-10-02T07:07:04.286Z,101538.09
2023-10-02T07:09:50.043Z,101535.63
2023-10-02T07:12:41.993Z,101540.94
2023-10-02T07:15:27.922Z,101538.41
2023-10-02T07:18:13.680Z,101543.66
2023-10-02T07:20:59.075Z,101548.16
2023-10-02T07:23:45.986Z,101550.06
2023-10-02T07:26:51.036Z,101542.44
2023-10-02T07:29:40.300Z,101548.69
2023-10-02T07:32:34.025Z,101543.69
2023-10-02T07:35:23.282Z,101535.25
2023-10-02T07:38:10.467Z,101528.47
2023-10-02T07:40:59.317Z,101541.78
2023-10-02T07:43:45.520Z,101535.06
2023-10-02T07:46:32.356Z,101550.03
2023-10-02T07:49:18.393Z,101550.19
2023-10-02T07:52:07.948Z,101547.78
2023-10-02T07:54:59.824Z,101550.53
2023-10-02T07:57:45.571Z,101542.06
2023-10-02T08:00:40.733Z,101552.63
2023-10-02T08:03:44.553Z,101540.66
2023-10-02T08:06:33.179Z,101546.06
2023-10-02T08:09:44.984Z,101540.94
2023-10-02T08:12:35.530Z,101533.22
2023-10-02T08:15:34.456Z,101535.94
2023-10-02T08:18:20.733Z,101533.38
2023-10-02T08:21:06.617Z,101536.97
2023-10-02T08:23:54.221Z,101538.75
2023-10-02T08:26:42.141Z,101540.53
2023-10-02T08:29:28.726Z,101538.03
2023-10-02T08:32:27.815Z,101542.47
2023-10-02T08:35:15.735Z,101547.84
2023-10-02T08:38:01.817Z,101541.00
2023-10-02T08:40:47.468Z,101550.69
2023-10-02T08:43:45.578Z,101551.66
2023-10-02T08:46:32.954Z,101542.13
2023-10-02T08:49:19.514Z,101542.22
2023-10-02T08:52:09.872Z,101541.44
2023-10-02T08:54:55.493Z,101537.13
2023-10-02T08:58:02.362Z,101531.91
2023-10-02T09:01:10.469Z,101530.19
2023-10-02T09:04:25.492Z,101525.84
2023-10-02T09:07:24.257Z,101531.09
2023-10-02T09:10:29.607Z,101531.97
2023-10-02T09:13:25.789Z,101539.88
2023-10-02T09:16:15.427Z,101531.19
2023-10-02T09:19:29.945Z,101524.22
2023-10-02T09:22:19.422Z,101534.78
2023-10-02T09:25:11.348Z,101527.81
2023-10-02T09:28:05.334Z,101527.88
2023-10-02T09:30:51.592Z,101540.09
2023-10-02T09:33:50.985Z,101547.13
2023-10-02T09:37:10.721Z,101538.44
2023-10-02T09:39:58.843Z,101536.69
2023-10-02T09:42:49.720Z,101532.34
2023-10-02T09:45:38.950Z,101541.97
2023-10-02T09:48:47.646Z,101533.22
2023-10-02T09:52:14.053Z,101507.03
2023-10-02T09:55:07.594Z,101490.44
2023-10-02T09:57:55.638Z,101479.94
2023-10-02T10:01:29.209Z,101472.09
2023-10-02T10:04:33.395Z,101451.13
2023-10-02T10:07:38.892Z,101445.03
2023-10-02T10:10:50.306Z,101431.91
2023-10-02T10:13:47.846Z,101431.03
2023-10-02T10:16:34.694Z,101440.63
2023-10-02T10:19:20.213Z,101430.16
2023-10-02T10:22:27.436Z,101436.28
2023-10-02T10:25:22.529Z,101425.78
2023-10-02T10:28:10.570Z,101418.78
2023-10-02T10:31:02.963Z,101424.03
2023-10-02T10:33:48.988Z,101418.78
2023-10-02T10:36:38.880Z,101414.44
2023-10-02T10:39:52.897Z,101409.16
2023-10-02T10:42:58.149Z,101409.13
2023-10-02T10:45:45.693Z,101423.13
2023-10-02T10:48:31.023Z,101391.66
2023-10-02T10:51:23.611Z,101403.88
2023-10-02T10:54:14.373Z,101404.78
2023-10-02T10:57:24.534Z,101388.16
2023-10-02T11:00:27.156Z,101389.91
2023-10-02T11:03:16.399Z,101387.31
2023-10-02T11:06:04.485Z,101393.41
2023-10-02T11:09:13.232Z,101395.16
2023-10-02T11:12:00.118Z,101401.28
2023-10-02T11:14:45.823Z,101390.78
2023-10-02T11:17:34.327Z,101377.69
2023-10-02T11:20:32.779Z,101368.94
2023-10-02T11:23:41.372Z,101367.22
2023-10-02T11:26:27.331Z,101366.31
2023-10-02T11:29:22.316Z,101366.31
2023-10-02T11:32:23.744Z,101360.19
2023-10-02T11:35:09.469Z,101358.44
2023-10-02T11:37:54.819Z,101354.06
2023-10-02T11:40:45.991Z,101352.31
2023-10-02T11:43:35.813Z,101359.31
2023-10-02T11:46:24.563Z,101368.91
2023-10-02T11:49:21.313Z,101374.09
2023-10-02T11:52:15.224Z,101372.31
2023-10-02T11:55:00.717Z,101397.59
2023-10-02T11:57:52.899Z,101389.66
2023-10-02T12:00:39.342Z,101376.47
2023-10-02T12:03:24.776Z,101379.06
2023-10-02T12:06:15.530Z,101380.78
2023-10-02T12:09:02.483Z,101373.75
2023-10-02T12:11:48.140Z,101367.63
2023-10-02T12:14:34.060Z,101362.38
2023-10-02T12:17:19.458Z,101348.34
2023-10-02T12:20:12.225Z,101345.75
2023-10-02T12:22:58.038Z,101336.16
2023-10-02T12:25:49.448Z,101337.00
2023-10-02T12:28:35.672Z,101326.53
2023-10-02T12:31:21.088Z,101323.91
2023-10-02T12:34:06.878Z,101319.50
2023-10-02T12:36:55.107Z,101323.00
2023-10-02T12:39:40.480Z,101316.00
2023-10-02T12:42:26.885Z,101307.25
2023-10-02T12:45:12.562Z,101294.16
2023-10-02T12:47:58.309Z,101296.78
2023-10-02T12:50:44.130Z,101277.53
2023-10-02T12:53:29.537Z,101274.94
2023-10-02T12:56:17.381Z,101285.41
2023-10-02T12:59:03.732Z,101281.06
2023-10-02T13:01:49.330Z,101260.94
2023-10-02T13:04:34.615Z,101277.53
2023-10-02T13:07:20.194Z,101266.97
2023-10-02T13:10:06.251Z,101270.41
2023-10-02T13:12:52.309Z,101264.19
2023-10-02T13:15:38.053Z,101254.50
2023-10-02T13:18:23.583Z,101243.03
2023-10-02T13:21:09.869Z,101235.97
2023-10-02T13:23:55.647Z,101242.03
2023-10-02T13:26:42.142Z,101220.97
2023-10-02T13:29:27.861Z,101218.22
2023-10-02T13:32:13.276Z,101210.25
2023-10-02T13:34:58.699Z,101202.31
2023-10-02T13:37:44.728Z,101213.75
2023-10-02T13:40:33.241Z,101215.47
2023-10-02T13:43:19.840Z,101198.84
2023-10-02T13:46:09.852Z,101204.09
2023-10-02T13:48:55.981Z,101200.59
2023-10-02T13:51:42.974Z,101195.34
2023-10-02T13:54:30.410Z,101190.16
2023-10-02T13:57:17.871Z,101176.28
2023-10-02T14:00:11.580Z,101181.56
2023-10-02T14:02:57.195Z,101182.50
2023-10-02T14:05:42.830Z,101182.59
2023-10-02T14:08:28.802Z,101208.03
2023-10-02T14:11:19.249Z,101200.16
2023-10-02T14:14:05.458Z,101215.09
2023-10-02T14:16:51.310Z,101221.22
2023-10-02T14:19:54.008Z,101222.97
2023-10-02T14:22:51.985Z,101224.69
2023-10-02T14:25:43.829Z,101219.41
2023-10-02T14:28:30.182Z,101219.41
2023-10-02T14:31:28.764Z,101217.69
2023-10-02T14:34:14.209Z,101209.91
2023-10-02T14:37:00.831Z,101203.00
2023-10-02T14:39:46.682Z,101181.22
2023-10-02T14:42:32.074Z,101185.69
2023-10-02T14:45:17.668Z,101193.66
2023-10-02T14:48:03.554Z,101195.47
2023-10-02T14:50:49.339Z,101199.91
2023-10-02T14:53:35.264Z,101206.06
2023-10-02T14:56:22.987Z,101207.88
2023-10-02T14:59:08.555Z,101206.97
2023-10-02T15:01:54.053Z,101192.19
2023-10-02T15:04:39.521Z,101192.22
2023-10-02T15:07:26.520Z,101194.84
2023-10-02T15:10:13.723Z,101201.88
2023-10-02T15:12:59.912Z,101192.31
2023-10-02T15:15:45.552Z,101191.44
2023-10-02T15:18:31.012Z,101182.72
2023-10-02T15:21:20.330Z,101170.53
2023-10-02T15:24:06.088Z,101181.91
2023-10-02T15:26:51.736Z,101167.94
2023-10-02T15:29:37.906Z,101173.22
2023-10-02T15:32:23.413Z,101171.53
2023-10-02T15:35:12.657Z,101163.69
2023-10-02T15:38:02.505Z,101167.22
2023-10-02T15:40:48.367Z,101169.88
2023-10-02T15:43:36.900Z,101156.78
2023-10-02T15:46:22.722Z,101147.22
2023-10-02T15:49:08.249Z,101125.41
2023-10-02T15:51:53.748Z,101113.22
2023-10-02T15:54:44.476Z,101116.72
2023-10-02T15:57:30.196Z,101111.50
2023-10-02T16:00:27.462Z,101108.06
2023-10-02T16:03:13.535Z,101108.09
2023-10-02T16:06:03.826Z,101120.28
2023-10-02T16:08:49.743Z,101120.28
2023-10-02T16:11:35.465Z,101124.69
2023-10-02T16:14:20.974Z,101126.44
2023-10-02T16:17:08.962Z,101123.84
2023-10-02T16:19:54.909Z,101108.09
2023-10-02T16:22:41.868Z,101109.88
2023-10-02T16:25:29.905Z,101118.63
2023-10-02T16:28:15.426Z,101126.50
2023-10-02T16:31:00.958Z,101137.88
2023-10-02T16:33:49.665Z,101143.13
2023-10-02T16:36:35.418Z,101151.88
2023-10-02T16:39:21.446Z,101142.28
2023-10-02T16:42:07.426Z,101143.16
2023-10-02T16:44:53.696Z,101134.47
2023-10-02T16:47:42.535Z,101144.06
2023-10-02T16:50:30.456Z,101147.53
2023-10-02T16:53:16.464Z,101145.84
2023-10-02T16:56:02.238Z,101136.25
2023-10-02T16:58:47.583Z,101146.69
2023-10-02T17:01:33.129Z,101158.94
2023-10-02T17:04:18.976Z,101155.41
2023-10-02T17:07:04.379Z,101158.03
2023-10-02T17:09:50.929Z,101168.50
2023-10-02T17:12:36.355Z,101165.00
2023-10-02T17:15:21.885Z,101173.75
2023-10-02T17:18:07.700Z,101185.06
2023-10-02T17:20:53.165Z,101184.22
2023-10-02T17:23:38.794Z,101169.38
2023-10-02T17:26:24.558Z,101160.66
2023-10-02T17:29:09.889Z,101145.88
2023-10-02T17:31:55.666Z,101140.59
2023-10-02T17:34:41.282Z,101145.00
2023-10-02T17:37:26.763Z,101143.25
2023-10-02T17:40:12.766Z,101130.19
2023-10-02T17:42:58.602Z,101134.50
2023-10-02T17:45:44.291Z,101134.50
2023-10-02T17:48:29.833Z,101147.59
2023-10-02T17:51:15.797Z,101132.78
2023-10-02T17:54:01.252Z,101138.88
2023-10-02T17:56:46.582Z,101143.22
2023-10-02T17:59:32.178Z,101142.38
2023-10-02T18:02:17.852Z,101151.06
2023-10-02T18:05:04.746Z,101153.69
2023-10-02T18:07:50.622Z,101151.09
2023-10-02T18:10:38.021Z,101147.56
2023-10-02T18:13:23.764Z,101138.88
2023-10-02T18:16:10.061Z,101139.72
2023-10-02T18:18:55.576Z,101151.03
2023-10-02T18:21:41.685Z,101152.75
2023-10-02T18:24:27.334Z,101158.81
2023-10-02T18:27:13.363Z,101156.16
2023-10-02T18:29:58.572Z,101152.59
2023-10-02T18:32:44.230Z,101151.63
2023-10-02T18:35:30.130Z,101148.91
2023-10-02T18:38:15.486Z,101148.78
2023-10-02T18:41:01.023Z,101147.81
2023-10-02T18:43:47.175Z,101142.47
2023-10-02T18:46:33.839Z,101145.00
2023-10-02T18:49:19.253Z,101144.94
2023-10-02T18:52:05.228Z,101141.38
2023-10-02T18:54:50.656Z,101149.09
2023-10-02T18:57:36.098Z,101153.47
2023-10-02T19:00:21.981Z,101153.47
2023-10-02T19:03:07.745Z,101150.78
2023-10-02T19:05:53.514Z,101148.97
2023-10-02T19:08:39.829Z,101154.03
2023-10-02T19:11:28.973Z,101146.97
2023-10-02T19:14:14.633Z,101152.19
2023-10-02T19:17:00.008Z,101151.34
2023-10-02T19:19:45.440Z,101157.50
2023-10-02T19:22:32.558Z,101155.81
2023-10-02T19:25:18.181Z,101163.66
2023-10-02T19:28:03.991Z,101156.72
2023-10-02T19:30:50.062Z,101160.19
2023-10-02T19:33:35.799Z,101155.06
2023-10-02T19:36:21.394Z,101162.00
2023-10-02T19:39:09.465Z,101167.22
2023-10-02T19:41:55.216Z,101159.47
2023-10-02T19:44:40.677Z,101162.09
2023-10-02T19:47:26.241Z,101161.19
2023-10-02T19:50:13.102Z,101163.81
2023-10-02T19:52:58.723Z,101161.97
2023-10-02T19:55:44.212Z,101161.78
2023-10-02T19:58:30.023Z,101163.31
2023-10-02T20:01:15.833Z,101159.66
2023-10-02T20:04:01.294Z,101162.00
2023-10-02T20:06:47.474Z,101160.94
2023-10-02T20:09:34.916Z,101150.28
2023-10-02T20:12:21.708Z,101148.31
2023-10-02T20:15:08.308Z,101151.56
2023-10-02T20:17:53.917Z,101146.19
2023-10-02T20:20:39.598Z,101144.25
2023-10-02T20:23:37.225Z,101147.78
2023-10-02T20:26:31.349Z,101146.75
2023-10-02T20:29:16.991Z,101153.66
2023-10-02T20:32:04.458Z,101150.97
2023-10-02T20:34:51.323Z,101140.38
2023-10-02T20:37:37.406Z,101139.25
2023-10-02T20:40:22.874Z,101146.91
2023-10-02T20:43:08.444Z,101142.50
2023-10-02T20:45:53.933Z,101154.47
2023-10-02T20:48:39.772Z,101148.31
2023-10-02T20:51:25.196Z,101144.66
2023-10-02T20:54:11.381Z,101134.16
2023-10-02T20:56:57.151Z,101138.47
2023-10-02T20:59:43.444Z,101141.91
2023-10-02T21:02:30.780Z,101139.25
2023-10-02T21:05:17.666Z,101142.66
2023-10-02T21:08:04.642Z,101135.66
2023-10-02T21:10:52.736Z,101145.09
2023-10-02T21:13:38.147Z,101138.91
2023-10-02T21:16:23.641Z,101138.91
2023-10-02T21:19:09.028Z,101137.06
2023-10-02T21:21:54.567Z,101146.44
2023-10-02T21:24:40.036Z,101149.19
2023-10-02T21:27:25.411Z,101147.72
2023-10-02T21:30:14.276Z,101149.53
2023-10-02T21:33:00.392Z,101140.78
2023-10-02T21:35:46.445Z,101146.78
2023-10-02T21:38:32.934Z,101148.56
2023-10-02T21:41:20.475Z,101158.19
2023-10-02T21:44:06.373Z,101160.09
2023-10-02T21:46:52.123Z,101155.84
2023-10-02T21:49:38.238Z,101162.41
2023-10-02T21:52:24.631Z,101162.03
2023-10-02T21:55:13.230Z,101170.00
2023-10-02T21:57:58.817Z,101176.28
2023-10-02T22:00:47.768Z,101173.13
2023-10-02T22:03:33.764Z,101181.97
2023-10-02T22:06:21.908Z,101182.88
2023-10-02T22:09:07.838Z,101178.59
2023-10-02T22:11:53.616Z,101179.41
2023-10-02T22:14:40.675Z,101180.44
2023-10-02T22:17:27.411Z,101180.69
2023-10-02T22:20:19.849Z,101176.44
2023-10-02T22:23:08.069Z,101172.13
2023-10-02T22:25:58.203Z,101174.66
2023-10-02T22:28:43.658Z,101164.97
2023-10-02T22:31:29.637Z,101158.78
2023-10-02T22:34:26.850Z,101163.03
2023-10-02T22:37:24.324Z,101155.41
2023-10-02T22:40:18.529Z,101156.34
2023-10-02T22:43:04.272Z,101158.09
2023-10-02T22:45:49.871Z,101159.09
2023-10-02T22:48:35.776Z,101159.19
2023-10-02T22:51:25.838Z,101155.81
2023-10-02T22:54:11.428Z,101160.94
2023-10-02T22:57:00.613Z,101162.59
2023-10-02T22:59:48.361Z,101157.41
2023-10-02T23:02:34.011Z,101157.41
2023-10-02T23:05:19.917Z,101163.53
2023-10-02T23:08:08.313Z,101168.16
2023-10-02T23:10:53.733Z,101170.03
2023-10-02T23:13:39.920Z,101169.38
2023-10-02T23:16:25.316Z,101171.19
2023-10-02T23:19:11.440Z,101174.59
2023-10-02T23:21:56.920Z,101169.19
2023-10-02T23:24:42.441Z,101170.69
2023-10-02T23:27:28.132Z,101164.63
2023-10-02T23:30:21.873Z,101160.25
2023-10-02T23:33:07.333Z,101168.16
2023-10-02T23:35:54.221Z,101170.88
2023-10-02T23:38:39.614Z,101168.28
2023-10-02T23:41:25.551Z,101167.38
2023-10-02T23:44:14.160Z,101160.34
2023-10-02T23:46:59.351Z,101162.00
2023-10-02T23:49:45.034Z,101168.06
2023-10-02T23:52:32.138Z,101171.66
2023-10-02T23:55:29.403Z,101170.88
2023-10-02T23:58:14.642Z,101171.00
